createdAt,value
2019-01-16T00:00:42.108Z,3.04
2019-01-16T00:03:10.053Z,2.99
2019-01-16T00:05:40.988Z,2.93
2019-01-16T00:08:17.564Z,2.89
2019-01-16T00:10:45.534Z,2.84
2019-01-16T00:13:13.503Z,2.77
2019-01-16T00:15:47.328Z,2.74
2019-01-16T00:18:18.052Z,2.77
2019-01-16T00:20:54.824Z,2.81
2019-01-16T00:23:28.294Z,2.84
2019-01-16T00:26:14.123Z,2.81
2019-01-16T00:28:44.931Z,2.75
2019-01-16T00:31:12.841Z,2.71
2019-01-16T00:33:46.579Z,2.76
2019-01-16T00:36:17.357Z,2.81
2019-01-16T00:38:48.100Z,2.84
2019-01-16T00:41:28.063Z,2.84
2019-01-16T00:44:13.096Z,2.83
2019-01-16T00:46:50.007Z,2.73
2019-01-16T00:49:17.975Z,2.60
2019-01-16T00:51:51.497Z,2.50
2019-01-16T00:54:25.283Z,2.42
2019-01-16T00:56:53.191Z,2.34
2019-01-16T00:59:40.152Z,2.29
2019-01-16T01:02:08.241Z,2.24
2019-01-16T01:04:42.198Z,2.16
2019-01-16T01:07:19.238Z,2.11
2019-01-16T01:09:47.210Z,2.09
2019-01-16T01:12:15.218Z,2.04
2019-01-16T01:15:01.371Z,1.99
2019-01-16T01:17:29.265Z,1.97
2019-01-16T01:20:14.118Z,1.95
2019-01-16T01:22:42.087Z,1.97
2019-01-16T01:25:12.964Z,1.93
2019-01-16T01:27:43.834Z,1.88
2019-01-16T01:30:29.456Z,1.85
2019-01-16T01:33:06.231Z,1.86
2019-01-16T01:35:53.249Z,1.87
2019-01-16T01:38:29.619Z,1.90
2019-01-16T01:40:57.587Z,1.97
2019-01-16T01:43:42.174Z,2.06
2019-01-16T01:46:26.501Z,2.15
2019-01-16T01:49:06.760Z,2.23
2019-01-16T01:51:34.967Z,2.30
2019-01-16T01:54:18.093Z,2.39
2019-01-16T01:56:54.943Z,2.47
2019-01-16T01:59:41.887Z,2.52
2019-01-16T02:02:09.827Z,2.54
2019-01-16T02:04:37.805Z,2.53
2019-01-16T02:07:18.265Z,2.58
2019-01-16T02:10:02.473Z,2.63
2019-01-16T02:18:22.496Z,2.57
2019-01-16T02:21:09.066Z,2.61
2019-01-16T02:23:49.415Z,2.60
2019-01-16T02:26:17.319Z,2.63
2019-01-16T02:29:01.847Z,2.63
2019-01-16T02:31:46.134Z,2.61
2019-01-16T02:34:19.059Z,2.58
2019-01-16T02:36:52.651Z,2.60
2019-01-16T02:39:20.703Z,2.59
2019-01-16T02:42:06.866Z,2.54
2019-01-16T02:44:34.801Z,2.50
2019-01-16T02:47:05.657Z,2.45
2019-01-16T02:49:44.894Z,2.40
2019-01-16T02:52:18.604Z,2.39
2019-01-16T02:54:58.376Z,2.41
2019-01-16T02:57:26.290Z,2.40
2019-01-16T03:00:09.895Z,2.42
2019-01-16T03:02:54.498Z,2.45
2019-01-16T03:05:33.185Z,2.43
2019-01-16T03:08:01.096Z,2.39
2019-01-16T03:10:37.885Z,2.41
2019-01-16T03:13:23.673Z,2.49
2019-01-16T03:15:53.602Z,2.57
2019-01-16T03:18:24.454Z,2.63
2019-01-16T03:21:01.462Z,2.63
2019-01-16T03:23:29.528Z,2.63
2019-01-16T03:25:57.430Z,2.65
2019-01-16T03:28:34.397Z,2.67
2019-01-16T03:31:04.853Z,2.66
2019-01-16T03:33:38.450Z,2.62
2019-01-16T03:36:09.335Z,2.63
2019-01-16T03:38:49.374Z,2.70
2019-01-16T03:41:34.244Z,2.72
2019-01-16T03:44:18.627Z,2.71
2019-01-16T03:46:46.627Z,2.67
2019-01-16T03:49:20.111Z,2.70
2019-01-16T03:51:50.816Z,2.68
2019-01-16T03:54:21.480Z,2.64
2019-01-16T03:57:07.802Z,2.65
2019-01-16T03:59:36.109Z,2.71
2019-01-16T04:02:22.842Z,2.77
2019-01-16T04:04:59.561Z,2.82
2019-01-16T04:07:27.887Z,2.82
2019-01-16T04:09:55.786Z,2.78
2019-01-16T04:12:35.307Z,2.74
2019-01-16T04:15:09.297Z,2.65
2019-01-16T04:17:52.440Z,2.63
2019-01-16T04:20:26.134Z,2.64
2019-01-16T04:23:10.736Z,2.69
2019-01-16T04:25:50.762Z,2.69
2019-01-16T04:28:21.394Z,2.71
2019-01-16T04:30:52.334Z,2.68
2019-01-16T04:33:26.370Z,2.65
2019-01-16T04:35:54.282Z,2.62
2019-01-16T04:38:22.494Z,2.60
2019-01-16T04:40:56.817Z,2.58
2019-01-16T04:43:36.663Z,2.57
2019-01-16T04:46:04.631Z,2.59
2019-01-16T04:48:44.685Z,2.60
2019-01-16T04:51:13.175Z,2.63
2019-01-16T04:53:57.731Z,2.65
2019-01-16T04:56:37.070Z,2.68
2019-01-16T04:59:13.652Z,2.66
2019-01-16T05:01:41.917Z,2.64
2019-01-16T05:04:26.682Z,2.64
2019-01-16T05:07:12.881Z,2.64
2019-01-16T05:09:40.788Z,2.63
2019-01-16T05:12:10.903Z,2.63
2019-01-16T05:14:41.682Z,2.65
2019-01-16T05:17:18.412Z,2.71
2019-01-16T05:20:05.072Z,2.79
2019-01-16T05:22:38.598Z,2.88
2019-01-16T05:25:19.214Z,2.92
2019-01-16T05:27:59.398Z,2.95
2019-01-16T05:30:43.846Z,2.98
2019-01-16T05:33:17.304Z,2.98
2019-01-16T05:35:47.457Z,2.97
2019-01-16T05:38:30.631Z,2.92
2019-01-16T05:41:04.618Z,2.82
2019-01-16T05:43:35.377Z,2.73
2019-01-16T05:46:15.209Z,2.64
2019-01-16T05:48:48.932Z,2.61
2019-01-16T05:54:10.437Z,2.65
2019-01-16T05:56:46.998Z,2.71
2019-01-16T05:59:30.478Z,2.76
2019-01-16T06:02:04.146Z,2.80
2019-01-16T06:04:42.116Z,2.85
2019-01-16T06:07:12.734Z,2.90
2019-01-16T06:09:46.441Z,2.94
2019-01-16T06:12:14.290Z,2.98
2019-01-16T06:14:44.944Z,3.00
2019-01-16T06:17:29.598Z,2.98
2019-01-16T06:20:16.023Z,2.96
2019-01-16T06:22:45.812Z,3.00
2019-01-16T06:25:30.373Z,3.00
2019-01-16T06:28:01.025Z,2.99
2019-01-16T06:30:37.681Z,2.99
2019-01-16T06:33:13.153Z,2.96
2019-01-16T06:35:46.610Z,2.97
2019-01-16T06:38:14.459Z,2.98
2019-01-16T06:40:51.464Z,3.00
2019-01-16T06:43:22.081Z,3.06
2019-01-16T06:45:49.948Z,3.09
2019-01-16T06:48:23.913Z,3.11
2019-01-16T06:50:51.765Z,3.16
2019-01-16T06:53:36.135Z,3.20
2019-01-16T06:56:22.056Z,3.25
2019-01-16T06:58:55.804Z,3.30
2019-01-16T07:01:40.260Z,3.36
2019-01-16T07:04:26.447Z,3.39
2019-01-16T07:07:00.382Z,3.40
2019-01-16T07:09:40.196Z,3.45
2019-01-16T07:12:10.575Z,3.48
2019-01-16T07:14:44.481Z,3.53
2019-01-16T07:17:18.365Z,3.56
2019-01-16T07:19:46.298Z,3.63
2019-01-16T07:22:20.007Z,3.67
2019-01-16T07:25:06.202Z,3.74
2019-01-16T07:27:46.047Z,3.80
2019-01-16T07:30:14.451Z,3.84
2019-01-16T07:32:46.744Z,3.85
2019-01-16T07:35:31.331Z,3.84
2019-01-16T07:38:01.974Z,3.86
2019-01-16T07:40:32.622Z,3.91
2019-01-16T07:43:06.619Z,3.95
2019-01-16T07:45:40.341Z,4.01
2019-01-16T07:48:11.034Z,4.08
2019-01-16T07:50:50.498Z,4.15
2019-01-16T07:53:18.525Z,4.25
2019-01-16T07:55:46.411Z,4.32
2019-01-16T07:58:14.285Z,4.36
2019-01-16T08:00:47.971Z,4.41
2019-01-16T08:03:15.808Z,4.42
2019-01-16T08:06:03.202Z,4.47
2019-01-16T08:08:42.982Z,4.51
2019-01-16T08:11:10.907Z,4.60
2019-01-16T08:13:48.003Z,4.70
2019-01-16T08:16:21.488Z,4.78
2019-01-16T08:18:52.528Z,4.84
2019-01-16T08:21:35.204Z,4.87
2019-01-16T08:24:19.758Z,4.88
2019-01-16T08:26:53.540Z,4.89
2019-01-16T08:29:24.387Z,4.91
2019-01-16T08:31:58.060Z,4.95
2019-01-16T08:34:31.739Z,4.96
2019-01-16T08:37:05.395Z,4.97
2019-01-16T08:39:36.147Z,4.98
2019-01-16T08:42:22.291Z,5.01
2019-01-16T08:45:06.747Z,5.02
2019-01-16T08:47:51.282Z,5.08
2019-01-16T08:50:37.878Z,5.12
2019-01-16T08:53:14.756Z,5.12
2019-01-16T08:55:59.356Z,5.17
2019-01-16T08:58:27.311Z,5.24
2019-01-16T09:00:55.169Z,5.31
2019-01-16T09:03:39.761Z,5.34
2019-01-16T09:06:24.328Z,5.35
2019-01-16T09:08:52.232Z,5.35
2019-01-16T09:11:28.947Z,5.36
2019-01-16T09:13:59.510Z,5.35
2019-01-16T09:16:30.145Z,5.31
2019-01-16T09:19:03.852Z,5.35
2019-01-16T09:21:48.220Z,5.38
2019-01-16T09:24:16.174Z,5.41
2019-01-16T09:26:59.159Z,5.42
2019-01-16T09:29:33.661Z,5.48
2019-01-16T09:32:04.277Z,5.60
2019-01-16T09:34:43.756Z,5.72
2019-01-16T09:37:28.313Z,5.85
2019-01-16T09:40:12.791Z,5.99
2019-01-16T09:42:40.641Z,6.15
2019-01-16T09:45:26.213Z,6.22
2019-01-16T09:48:09.262Z,6.23
2019-01-16T09:50:37.268Z,6.24
2019-01-16T09:53:05.663Z,6.21
2019-01-16T09:55:50.424Z,6.17
2019-01-16T09:58:21.042Z,6.11
2019-01-16T10:01:07.065Z,6.13
2019-01-16T10:03:37.432Z,6.14
2019-01-16T10:06:23.408Z,6.11
2019-01-16T10:09:03.254Z,6.10
2019-01-16T10:11:46.253Z,6.12
2019-01-16T10:14:23.065Z,6.16
2019-01-16T10:16:50.995Z,6.14
2019-01-16T10:19:35.552Z,6.17
2019-01-16T10:22:09.500Z,6.22
2019-01-16T10:24:37.364Z,6.27
2019-01-16T10:27:11.380Z,6.33
2019-01-16T10:29:42.369Z,6.38
2019-01-16T10:32:12.781Z,6.42
2019-01-16T10:34:43.489Z,6.38
2019-01-16T10:37:17.358Z,6.36
2019-01-16T10:39:51.232Z,6.31
2019-01-16T10:42:19.090Z,6.27
2019-01-16T10:44:49.928Z,6.25
2019-01-16T10:47:17.823Z,6.23
2019-01-16T10:50:04.035Z,6.28
2019-01-16T10:52:48.381Z,6.33
2019-01-16T10:55:28.232Z,6.37
2019-01-16T10:57:58.638Z,6.45
2019-01-16T11:00:26.491Z,6.43
2019-01-16T11:03:09.209Z,6.35
2019-01-16T11:05:39.765Z,6.29
2019-01-16T11:08:19.769Z,6.22
2019-01-16T11:10:50.625Z,6.20
2019-01-16T11:13:24.092Z,6.17
2019-01-16T11:16:00.539Z,6.15
2019-01-16T11:18:34.223Z,6.16
2019-01-16T11:21:02.094Z,6.17
2019-01-16T11:23:39.087Z,6.22
2019-01-16T11:26:12.876Z,6.28
2019-01-16T11:28:49.883Z,6.29
2019-01-16T11:31:20.610Z,6.26
2019-01-16T11:33:54.368Z,6.24
2019-01-16T11:36:37.498Z,6.22
2019-01-16T11:39:17.471Z,6.24
2019-01-16T11:41:45.336Z,6.20
2019-01-16T11:44:29.616Z,6.14
2019-01-16T11:47:03.508Z,6.12
2019-01-16T11:49:48.127Z,6.10
2019-01-16T11:52:16.085Z,6.10
2019-01-16T11:54:49.895Z,6.05
2019-01-16T11:57:17.825Z,6.04
2019-01-16T11:59:48.533Z,6.03
2019-01-16T12:02:22.490Z,6.06
2019-01-16T12:04:50.335Z,6.12
2019-01-16T12:07:28.078Z,6.08
2019-01-16T12:09:58.930Z,6.08
2019-01-16T12:12:26.787Z,6.08
2019-01-16T12:14:55.090Z,6.08
2019-01-16T12:17:25.538Z,6.09
2019-01-16T12:19:59.245Z,6.08
2019-01-16T12:22:27.096Z,6.05
2019-01-16T12:24:54.944Z,6.04
2019-01-16T12:27:31.646Z,6.04
2019-01-16T12:29:59.505Z,6.06
2019-01-16T12:32:27.671Z,6.07
2019-01-16T12:35:12.473Z,6.06
2019-01-16T12:37:49.290Z,6.06
2019-01-16T12:40:25.919Z,6.08
2019-01-16T12:43:02.841Z,6.13
2019-01-16T12:45:36.584Z,6.17
2019-01-16T12:48:16.973Z,6.24
2019-01-16T12:50:54.026Z,6.28
2019-01-16T12:53:38.510Z,6.36
2019-01-16T12:56:17.809Z,6.43
2019-01-16T12:58:45.670Z,6.49
2019-01-16T13:01:19.661Z,6.57
2019-01-16T13:03:50.401Z,6.66
2019-01-16T13:06:18.251Z,6.69
2019-01-16T13:08:52.452Z,6.70
2019-01-16T13:11:20.300Z,6.71
2019-01-16T13:14:06.447Z,6.72
2019-01-16T13:16:40.618Z,6.70
2019-01-16T13:19:24.965Z,6.71
2019-01-16T13:21:52.813Z,6.71
2019-01-16T13:24:26.639Z,6.73
2019-01-16T13:26:57.376Z,6.73
2019-01-16T13:29:31.201Z,6.72
2019-01-16T13:32:10.801Z,6.72
2019-01-16T13:34:44.492Z,6.75
2019-01-16T13:37:29.083Z,6.77
2019-01-16T13:40:13.717Z,6.77
2019-01-16T13:42:42.004Z,6.79
2019-01-16T13:45:22.383Z,6.80
2019-01-16T13:47:53.283Z,6.83
2019-01-16T13:50:36.745Z,6.90
2019-01-16T13:53:05.240Z,6.92
2019-01-16T13:55:38.976Z,6.92
2019-01-16T13:58:19.289Z,6.92
2019-01-16T14:00:59.214Z,6.92
2019-01-16T14:03:33.132Z,6.89
2019-01-16T14:06:01.110Z,6.91
2019-01-16T14:08:44.174Z,6.95
2019-01-16T14:11:12.013Z,6.99
2019-01-16T14:13:39.877Z,7.01
2019-01-16T14:16:24.570Z,7.02
2019-01-16T14:19:09.083Z,7.02
2019-01-16T14:21:36.993Z,7.03
2019-01-16T14:24:07.911Z,7.03
2019-01-16T14:26:45.548Z,7.02
2019-01-16T14:29:13.763Z,7.01
2019-01-16T14:31:41.659Z,7.00
2019-01-16T14:34:21.580Z,6.99
2019-01-16T14:37:06.149Z,6.98
2019-01-16T14:39:34.064Z,7.00
2019-01-16T14:42:05.051Z,6.96
2019-01-16T14:44:35.666Z,6.95
2019-01-16T14:47:03.916Z,6.95
2019-01-16T14:49:31.844Z,6.94
2019-01-16T14:52:08.615Z,6.97
2019-01-16T14:54:53.093Z,6.96
2019-01-16T14:57:23.937Z,6.97
2019-01-16T14:59:51.790Z,6.94
2019-01-16T15:02:28.442Z,6.90
2019-01-16T15:04:59.197Z,6.88
2019-01-16T15:07:43.673Z,6.88
2019-01-16T15:10:11.749Z,6.86
2019-01-16T15:12:56.009Z,6.85
2019-01-16T15:15:27.077Z,6.83
2019-01-16T15:18:09.894Z,6.80
2019-01-16T15:20:40.514Z,6.79
2019-01-16T15:23:17.482Z,6.75
2019-01-16T15:25:51.331Z,6.73
2019-01-16T15:28:19.186Z,6.73
2019-01-16T15:30:59.272Z,6.74
2019-01-16T15:33:44.389Z,6.74
2019-01-16T15:36:16.876Z,6.75
2019-01-16T15:38:44.884Z,6.75
2019-01-16T15:41:19.167Z,6.72
2019-01-16T15:44:05.199Z,6.69
2019-01-16T15:46:33.096Z,6.69
2019-01-16T15:49:17.512Z,6.69
2019-01-16T15:51:57.360Z,6.68
2019-01-16T15:54:28.101Z,6.70
2019-01-16T15:56:58.883Z,6.71
2019-01-16T15:59:39.051Z,6.69
2019-01-16T16:02:22.408Z,6.69
2019-01-16T16:04:56.159Z,6.71
2019-01-16T16:07:24.022Z,6.72
2019-01-16T16:09:54.494Z,6.72
2019-01-16T16:12:25.155Z,6.74
2019-01-16T16:14:55.767Z,6.77
2019-01-16T16:17:38.745Z,6.78
2019-01-16T16:20:09.940Z,6.78
2019-01-16T16:22:52.711Z,6.76
2019-01-16T16:25:20.620Z,6.76
2019-01-16T16:27:51.289Z,6.70
2019-01-16T16:30:19.200Z,6.67
2019-01-16T16:33:02.171Z,6.65
2019-01-16T16:35:32.695Z,6.64
2019-01-16T16:38:18.796Z,6.63
2019-01-16T16:41:01.751Z,6.62
2019-01-16T16:43:35.446Z,6.59
2019-01-16T16:46:03.331Z,6.56
2019-01-16T16:48:34.123Z,6.56
2019-01-16T16:51:11.164Z,6.56
2019-01-16T16:53:44.600Z,6.56
2019-01-16T16:56:12.451Z,6.55
2019-01-16T16:58:46.312Z,6.57
2019-01-16T17:01:20.348Z,6.58
2019-01-16T17:03:48.252Z,6.57
2019-01-16T17:06:16.336Z,6.57
2019-01-16T17:08:59.450Z,6.58
2019-01-16T17:11:36.099Z,6.57
2019-01-16T17:14:22.405Z,6.57
2019-01-16T17:17:05.372Z,6.54
2019-01-16T17:19:39.153Z,6.49
2019-01-16T17:22:23.499Z,6.48
2019-01-16T17:24:51.490Z,6.50
2019-01-16T17:27:36.556Z,6.49
2019-01-16T17:30:17.408Z,6.48
2019-01-16T17:32:54.139Z,6.44
2019-01-16T17:35:24.901Z,6.44
2019-01-16T17:38:09.265Z,6.47
2019-01-16T17:40:52.536Z,6.50
2019-01-16T17:43:20.417Z,6.52
2019-01-16T17:45:57.434Z,6.55
2019-01-16T17:48:40.350Z,6.57
2019-01-16T17:51:24.888Z,6.59
2019-01-16T17:54:09.426Z,6.65
2019-01-16T17:56:55.784Z,6.68
2019-01-16T17:59:26.521Z,6.73
2019-01-16T18:01:56.913Z,6.74
2019-01-16T18:04:27.383Z,6.77
2019-01-16T18:07:01.292Z,6.81
2019-01-16T18:09:32.114Z,6.82
2019-01-16T18:12:05.613Z,6.84
2019-01-16T18:14:45.423Z,6.84
2019-01-16T18:17:29.827Z,6.85
2019-01-16T18:20:09.736Z,6.94
2019-01-16T18:22:37.658Z,7.04
2019-01-16T18:25:14.393Z,6.99
2019-01-16T18:27:42.256Z,6.94
2019-01-16T18:30:25.797Z,6.93
2019-01-16T18:32:56.440Z,6.91
2019-01-16T18:35:42.455Z,6.89
2019-01-16T18:38:10.321Z,6.84
2019-01-16T18:40:44.053Z,6.82
2019-01-16T18:43:29.695Z,6.89
2019-01-16T18:46:10.541Z,6.95
2019-01-16T18:48:40.979Z,6.89
2019-01-16T18:51:24.090Z,6.87
2019-01-16T18:53:52.108Z,6.86
2019-01-16T18:56:20.432Z,6.85
2019-01-16T18:58:57.768Z,6.86
2019-01-16T19:01:31.490Z,6.85
2019-01-16T19:04:02.252Z,6.87
2019-01-16T19:06:32.881Z,6.91
2019-01-16T19:09:12.803Z,6.93
2019-01-16T19:11:56.805Z,6.93
2019-01-16T19:14:30.390Z,6.92
2019-01-16T19:17:07.003Z,6.91
2019-01-16T19:19:51.613Z,6.92
2019-01-16T19:22:19.623Z,6.92
2019-01-16T19:24:50.761Z,6.93
2019-01-16T19:27:27.905Z,6.92
2019-01-16T19:29:55.817Z,6.94
2019-01-16T19:32:23.834Z,6.93
2019-01-16T19:34:56.283Z,6.95
2019-01-16T19:37:24.293Z,6.98
2019-01-16T19:39:55.337Z,6.98
2019-01-16T19:42:26.891Z,6.99
2019-01-16T19:45:03.619Z,7.03
2019-01-16T19:47:49.814Z,7.03
2019-01-16T19:50:17.987Z,7.02
2019-01-16T19:52:55.043Z,7.00
2019-01-16T19:55:24.716Z,7.00
2019-01-16T19:57:58.720Z,6.99
2019-01-16T20:00:46.027Z,6.98
2019-01-16T20:03:17.403Z,6.97
2019-01-16T20:05:54.822Z,6.96
2019-01-16T20:08:25.776Z,6.95
2019-01-16T20:10:53.627Z,6.93
2019-01-16T20:13:38.571Z,6.94
2019-01-16T20:16:18.663Z,6.93
2019-01-16T20:19:01.687Z,6.92
2019-01-16T20:21:38.717Z,6.91
2019-01-16T20:24:24.932Z,6.90
2019-01-16T20:27:09.644Z,6.88
2019-01-16T20:29:37.729Z,6.86
2019-01-16T20:32:22.330Z,6.90
2019-01-16T20:34:56.282Z,6.99
2019-01-16T20:37:29.254Z,7.01
2019-01-16T20:40:15.751Z,6.96
2019-01-16T20:42:46.160Z,6.94
2019-01-16T20:45:33.112Z,6.93
2019-01-16T20:48:19.062Z,6.90
2019-01-16T20:51:06.391Z,6.89
2019-01-16T20:53:37.235Z,6.88
2019-01-16T20:56:08.523Z,6.88
2019-01-16T20:58:48.336Z,6.87
2019-01-16T21:01:16.246Z,6.86
2019-01-16T21:03:47.081Z,6.85
2019-01-16T21:06:33.079Z,6.85
2019-01-16T21:09:16.339Z,6.87
2019-01-16T21:11:50.470Z,6.84
2019-01-16T21:14:21.103Z,6.87
2019-01-16T21:17:00.878Z,6.88
2019-01-16T21:19:37.319Z,6.87
2019-01-16T21:22:07.945Z,6.87
2019-01-16T21:24:41.756Z,6.85
2019-01-16T21:27:24.965Z,6.84
2019-01-16T21:30:07.662Z,6.84
2019-01-16T21:32:53.693Z,6.84
2019-01-16T21:35:38.280Z,6.85
2019-01-16T21:38:09.215Z,6.85
2019-01-16T21:40:53.849Z,6.87
2019-01-16T21:43:38.059Z,6.87
2019-01-16T21:46:23.963Z,6.85
2019-01-16T21:48:52.164Z,6.86
2019-01-16T21:51:20.244Z,6.84
2019-01-16T21:53:48.117Z,6.92
2019-01-16T21:56:31.293Z,6.96
2019-01-16T21:59:11.034Z,6.96
2019-01-16T22:01:41.724Z,6.95
2019-01-16T22:04:21.663Z,6.92
2019-01-16T22:07:06.219Z,6.91
2019-01-16T22:09:34.068Z,6.91
2019-01-16T22:12:01.934Z,6.88
2019-01-16T22:14:35.844Z,6.86
2019-01-16T22:17:03.698Z,6.86
2019-01-16T22:19:34.710Z,6.87
2019-01-16T22:22:08.758Z,6.87
2019-01-16T22:24:36.722Z,6.88
2019-01-16T22:27:11.347Z,6.88
2019-01-16T22:29:51.539Z,6.88
2019-01-16T22:32:25.250Z,6.89
2019-01-16T22:34:55.806Z,6.98
2019-01-16T22:37:23.765Z,6.96
2019-01-16T22:40:06.598Z,6.93
2019-01-16T22:42:49.273Z,6.93
2019-01-16T22:45:20.169Z,6.89
2019-01-16T22:48:06.448Z,6.85
2019-01-16T22:50:52.304Z,6.85
2019-01-16T22:53:20.158Z,6.84
2019-01-16T22:56:06.292Z,6.81
2019-01-16T22:58:37.165Z,6.82
2019-01-16T23:01:08.886Z,6.81
2019-01-16T23:03:36.877Z,6.85
2019-01-16T23:06:07.512Z,6.84
2019-01-16T23:08:47.421Z,6.85
2019-01-16T23:11:31.638Z,6.85
2019-01-16T23:13:59.549Z,6.82
2019-01-16T23:16:42.171Z,6.80
2019-01-16T23:19:15.996Z,6.77
2019-01-16T23:21:52.671Z,6.77
2019-01-16T23:24:20.576Z,6.76
2019-01-16T23:27:05.110Z,6.75
2019-01-16T23:29:33.334Z,6.74
2019-01-16T23:32:01.180Z,6.72
2019-01-16T23:34:35.078Z,6.70
2019-01-16T23:37:14.698Z,6.70
2019-01-16T23:39:45.550Z,6.69
2019-01-16T23:42:13.395Z,6.69
2019-01-16T23:44:56.304Z,6.68
2019-01-16T23:47:29.956Z,6.68
2019-01-16T23:50:14.543Z,6.69
2019-01-16T23:52:48.430Z,6.69
2019-01-16T23:55:16.322Z,6.70
2019-01-16T23:57:49.960Z,6.69
